Time;durP1;ratioP1;P1;durP2;ratioP2;P2;SDS_P1;SDS_P2;PMS_P1;PMS_P2;Temp;Humidity;BMP_temperature;BMP_pressure;BME280_temperature;BME280_humidity;BME280_pressure;Samples;Min_cycle;Max_cycle;Signal;HPM_P1;HPM_P2
2022/03/16 00:02:12;;;;;;;;;21.00;17.25;;;;;11.41;74.18;101738.69;5078153;27;45338;-74
2022/03/16 00:04:37;;;;;;;;;14.25;13.25;;;;;11.54;73.02;101765.59;5074308;27;45320;-75
2022/03/16 00:07:02;;;;;;;;;19.25;17.00;;;;;11.54;74.17;101750.63;5079903;28;45350;-76
2022/03/16 00:09:28;;;;;;;;;21.25;18.00;;;;;11.39;74.28;101731.53;5075338;28;45397;-76
2022/03/16 00:11:53;;;;;;;;;16.50;16.50;;;;;11.46;72.71;101745.91;5080146;28;45642;-76
2022/03/16 00:14:19;;;;;;;;;22.50;17.25;;;;;11.14;74.30;101676.81;5069965;28;45442;-76
2022/03/16 00:16:44;;;;;;;;;25.25;19.50;;;;;11.54;73.82;101747.03;5080357;28;45637;-76
2022/03/16 00:19:10;;;;;;;;;21.50;18.25;;;;;11.49;73.39;101738.06;5079105;28;45236;-75
2022/03/16 00:21:35;;;;;;;;;21.50;18.00;;;;;11.47;73.94;101738.00;5080472;27;45236;-75
2022/03/16 00:24:01;;;;;;;;;22.00;18.00;;;;;11.58;73.57;101757.81;5075400;28;46174;-75
2022/03/16 00:26:27;;;;;;;;;19.50;17.00;;;;;11.64;73.82;101758.03;5080352;27;45299;-74
2022/03/16 00:28:52;;;;;;;;;19.50;17.00;;;;;11.57;72.87;101744.53;5074676;27;45445;-76
2022/03/16 00:31:18;;;;;;;;;17.75;17.75;;;;;11.62;73.69;101757.09;5066374;27;45246;-75
2022/03/16 00:33:43;;;;;;;;;16.75;16.50;;;;;11.58;73.78;101746.31;5074696;28;45422;-76
2022/03/16 00:36:09;;;;;;;;;19.25;18.75;;;;;11.49;73.99;101733.66;5078368;28;46037;-76
2022/03/16 00:38:34;;;;;;;;;18.00;16.25;;;;;11.60;73.33;101739.34;5072437;28;45698;-76
2022/03/16 00:40:59;;;;;;;;;15.50;14.50;;;;;11.36;73.76;101699.66;5078752;28;45250;-76
2022/03/16 00:43:25;;;;;;;;;21.50;19.00;;;;;11.53;74.07;101738.22;5077861;28;45481;-76
2022/03/16 00:45:50;;;;;;;;;19.25;17.25;;;;;11.54;72.71;101726.78;5069592;27;45268;-75
2022/03/16 00:48:15;;;;;;;;;18.00;17.50;;;;;11.43;73.81;101713.16;5078714;28;45315;-75
2022/03/16 00:50:41;;;;;;;;;19.00;17.75;;;;;11.65;73.45;101751.91;5078792;28;45280;-75
2022/03/16 00:53:06;;;;;;;;;17.25;15.50;;;;;11.54;73.45;101723.22;5078703;27;45544;-76
2022/03/16 00:55:31;;;;;;;;;18.50;17.50;;;;;11.59;73.09;101732.22;5071865;27;45491;-75
2022/03/16 00:57:57;;;;;;;;;20.00;17.25;;;;;11.36;73.17;101687.31;5079564;27;45831;-75
2022/03/16 01:00:22;;;;;;;;;21.50;18.50;;;;;11.37;73.41;101693.50;5078875;28;45350;-76
2022/03/16 01:02:47;;;;;;;;;22.25;17.00;;;;;11.42;73.67;101694.56;5078681;27;45334;-75
2022/03/16 01:05:13;;;;;;;;;17.25;16.75;;;;;11.54;73.99;101709.97;5073489;28;45902;-75
2022/03/16 01:07:38;;;;;;;;;18.25;16.00;;;;;11.62;73.26;101722.66;5077648;28;45339;-76
2022/03/16 01:10:04;;;;;;;;;24.00;19.25;;;;;11.63;73.89;101720.91;5070476;28;45939;-75
2022/03/16 01:12:30;;;;;;;;;20.25;18.50;;;;;11.38;73.37;101680.34;5078735;27;45557;-74
2022/03/16 01:14:55;;;;;;;;;19.50;18.25;;;;;11.45;73.50;101693.78;5068683;28;46772;-74
2022/03/16 01:17:21;;;;;;;;;21.50;18.75;;;;;11.48;74.00;101691.22;5075525;28;45677;-74
2022/03/16 01:19:47;;;;;;;;;16.75;16.00;;;;;11.52;73.74;101699.34;5070427;28;45430;-75
2022/03/16 01:22:12;;;;;;;;;15.75;15.50;;;;;11.58;73.86;101709.25;5079237;27;45515;-75
2022/03/16 01:24:37;;;;;;;;;19.25;18.75;;;;;11.36;73.50;101658.19;5068413;28;47698;-75
2022/03/16 01:27:03;;;;;;;;;17.25;16.50;;;;;11.51;73.35;101689.63;5078553;27;45146;-75
2022/03/16 01:29:28;;;;;;;;;24.00;20.75;;;;;11.54;73.62;101699.38;5070062;28;45649;-75
2022/03/16 01:31:54;;;;;;;;;17.75;15.00;;;;;11.43;73.29;101685.81;5078525;27;45161;-74
2022/03/16 01:34:21;;;;;;;;;18.75;17.25;;;;;11.34;73.17;101673.16;5069648;28;45723;-75
2022/03/16 01:36:47;;;;;;;;;20.50;17.75;;;;;11.33;73.51;101675.72;5069087;28;45296;-74
2022/03/16 01:39:13;;;;;;;;;19.50;17.50;;;;;11.34;72.82;101672.22;5073665;28;45446;-74
2022/03/16 01:41:39;;;;;;;;;19.50;17.50;;;;;11.39;73.34;101678.56;5070585;28;45475;-74
2022/03/16 01:44:04;;;;;;;;;17.75;16.50;;;;;11.22;73.72;101655.91;5075210;28;45465;-75
2022/03/16 01:46:30;;;;;;;;;12.75;12.00;;;;;11.28;73.23;101678.19;5070059;28;44657;-75
2022/03/16 01:48:55;;;;;;;;;20.25;19.50;;;;;11.33;72.85;101686.31;5078015;28;45227;-75
2022/03/16 01:51:21;;;;;;;;;15.75;14.75;;;;;11.30;72.78;101692.41;5078836;28;45461;-74
2022/03/16 01:53:47;;;;;;;;;19.25;17.75;;;;;11.27;73.24;101686.09;5077863;27;45436;-74
2022/03/16 01:56:16;;;;;;;;;25.00;18.00;;;;;11.02;73.98;101653.47;5070199;28;45823;-74
2022/03/16 01:58:41;;;;;;;;;20.25;17.00;;;;;11.24;74.69;101686.00;5076095;28;45323;-75
2022/03/16 02:01:07;;;;;;;;;23.50;20.25;;;;;11.02;73.27;101664.03;5070696;27;45441;-74
2022/03/16 02:03:32;;;;;;;;;17.00;17.00;;;;;11.03;73.41;101662.28;5080951;27;46173;-73
2022/03/16 02:05:57;;;;;;;;;17.00;16.50;;;;;10.77;73.43;101640.19;5077776;28;45438;-75
2022/03/16 02:08:23;;;;;;;;;16.50;14.50;;;;;11.12;73.91;101697.94;5089268;27;48253;-75
2022/03/16 02:10:48;;;;;;;;;20.00;17.25;;;;;10.97;73.87;101663.84;5079870;27;45341;-74
2022/03/16 02:13:14;;;;;;;;;18.00;18.00;;;;;11.07;73.19;101677.44;5085345;27;48004;-75
2022/03/16 02:15:39;;;;;;;;;18.00;16.50;;;;;11.02;73.88;101671.09;5079784;28;45552;-75
2022/03/16 02:18:05;;;;;;;;;19.50;17.75;;;;;11.16;74.49;101693.66;5083857;28;45389;-75
2022/03/16 02:20:31;;;;;;;;;22.00;20.50;;;;;10.81;73.35;101629.78;5086908;28;45235;-74
2022/03/16 02:23:02;;;;;;;;;19.75;18.00;;;;;11.17;73.59;101693.72;5084949;28;46085;-75
2022/03/16 02:25:29;;;;;;;;;19.25;14.25;;;;;11.15;74.64;101694.50;5077094;28;46060;-75
2022/03/16 02:27:56;;;;;;;;;17.75;15.00;;;;;11.13;73.72;101685.59;5079798;27;45470;-75
2022/03/16 02:30:24;;;;;;;;;20.75;20.50;;;;;10.94;72.95;101647.00;5085155;27;45418;-75
2022/03/16 02:32:49;;;;;;;;;22.50;18.75;;;;;11.08;73.21;101676.59;5079499;27;46318;-76
2022/03/16 02:35:15;;;;;;;;;21.75;19.25;;;;;11.02;74.09;101677.28;5073605;28;45337;-75
2022/03/16 02:37:41;;;;;;;;;20.50;17.25;;;;;10.80;73.73;101630.59;5079455;28;45507;-75
2022/03/16 02:40:10;;;;;;;;;17.00;17.00;;;;;10.92;73.17;101651.31;5074897;28;45496;-76
2022/03/16 02:42:35;;;;;;;;;20.75;16.50;;;;;10.97;74.02;101668.25;5081988;28;46520;-75
2022/03/16 02:45:02;;;;;;;;;18.25;17.25;;;;;10.97;73.96;101670.91;5075719;28;45788;-75
2022/03/16 02:47:28;;;;;;;;;21.25;18.75;;;;;10.79;73.94;101639.41;5083284;28;45236;-75
2022/03/16 02:49:54;;;;;;;;;20.75;19.00;;;;;10.91;74.47;101663.63;5084992;28;45329;-75
2022/03/16 02:52:19;;;;;;;;;17.25;17.25;;;;;10.89;73.45;101664.44;5084024;27;47169;-75
2022/03/16 02:54:45;;;;;;;;;18.75;15.50;;;;;10.84;74.31;101666.91;5077794;27;45387;-76
2022/03/16 02:57:13;;;;;;;;;24.75;17.25;;;;;10.81;73.56;101653.59;5083260;28;45863;-76
2022/03/16 02:59:39;;;;;;;;;24.50;19.00;;;;;10.84;74.32;101668.63;5078543;27;45419;-75
2022/03/16 03:02:05;;;;;;;;;21.50;19.25;;;;;10.81;74.87;101666.81;5083363;28;46185;-75
2022/03/16 03:04:30;;;;;;;;;19.75;18.50;;;;;10.73;73.98;101650.66;5076598;28;45521;-75
2022/03/16 03:06:57;;;;;;;;;19.75;17.00;;;;;10.53;74.62;101612.00;5083486;28;45263;-75
2022/03/16 03:09:22;;;;;;;;;18.25;17.00;;;;;10.42;74.83;101600.09;5077914;28;46186;-76
2022/03/16 03:11:48;;;;;;;;;20.00;19.25;;;;;10.77;74.01;101669.28;5084562;27;45590;-75
2022/03/16 03:14:13;;;;;;;;;20.50;16.00;;;;;10.60;74.97;101647.50;5073321;28;45367;-75
2022/03/16 03:16:39;;;;;;;;;23.75;20.00;;;;;10.47;74.21;101632.88;5081023;27;45208;-75
2022/03/16 03:19:04;;;;;;;;;24.00;21.00;;;;;10.64;74.61;101654.69;5071460;27;45807;-75
2022/03/16 03:21:29;;;;;;;;;28.00;20.50;;;;;10.59;75.34;101645.69;5079569;28;46091;-75
2022/03/16 03:23:55;;;;;;;;;21.75;19.75;;;;;10.72;74.51;101677.91;5071618;27;45328;-75
2022/03/16 03:26:20;;;;;;;;;24.25;22.00;;;;;10.73;75.17;101669.16;5080791;28;45358;-75
2022/03/16 03:28:45;;;;;;;;;24.75;22.00;;;;;10.70;74.69;101662.88;5072680;27;45462;-75
2022/03/16 03:31:11;;;;;;;;;29.50;22.25;;;;;10.68;73.72;101649.56;5079143;28;46011;-75
2022/03/16 03:33:36;;;;;;;;;21.25;20.50;;;;;10.71;74.24;101651.44;5075996;27;45371;-76
2022/03/16 03:36:02;;;;;;;;;24.75;21.75;;;;;10.71;74.50;101662.00;5068172;27;45335;-74
2022/03/16 03:38:27;;;;;;;;;25.50;24.00;;;;;10.71;75.31;101657.63;5075648;28;45331;-75
2022/03/16 03:40:52;;;;;;;;;27.75;23.25;;;;;10.71;75.51;101662.00;5069253;27;45928;-75
2022/03/16 03:43:18;;;;;;;;;28.50;23.00;;;;;10.62;74.68;101652.00;5074565;28;45371;-74
2022/03/16 03:45:43;;;;;;;;;19.50;18.75;;;;;10.39;75.38;101618.47;5080025;28;45414;-74
2022/03/16 03:48:08;;;;;;;;;29.00;23.00;;;;;10.66;75.08;101661.81;5076217;28;47263;-75
2022/03/16 03:50:34;;;;;;;;;21.75;21.25;;;;;10.34;75.29;101604.22;5073568;28;48159;-74
2022/03/16 03:52:59;;;;;;;;;22.50;19.00;;;;;10.51;75.38;101632.19;5076158;28;45778;-74
2022/03/16 03:55:25;;;;;;;;;21.00;20.75;;;;;10.67;74.99;101666.28;5070842;28;45239;-75
2022/03/16 03:57:50;;;;;;;;;29.00;26.75;;;;;10.69;75.58;101659.28;5079976;27;45272;-75
2022/03/16 04:00:16;;;;;;;;;23.00;22.00;;;;;10.64;74.80;101658.25;5073946;27;45968;-74
2022/03/16 04:02:49;;;;;;;;;44.00;35.25;;;;;10.60;74.89;101650.13;5079737;28;45326;-76
2022/03/16 04:05:16;;;;;;;;;58.25;46.00;;;;;10.68;75.27;101656.63;5098896;27;45312;-74
2022/03/16 04:07:41;;;;;;;;;19.00;19.00;;;;;10.49;75.17;101618.00;5069567;28;46148;-76
2022/03/16 04:10:08;;;;;;;;;36.25;33.00;;;;;10.64;74.95;101647.66;5076519;28;45338;-76
2022/03/16 04:12:33;;;;;;;;;88.75;71.50;;;;;10.70;75.13;101650.53;5079876;28;45441;-75
2022/03/16 04:14:58;;;;;;;;;42.75;37.25;;;;;10.71;75.01;101656.72;5071401;28;45552;-75
2022/03/16 04:17:23;;;;;;;;;33.00;30.00;;;;;10.44;74.79;101603.69;5079349;27;45469;-75
2022/03/16 04:19:49;;;;;;;;;144.67;130.00;;;;;10.63;75.66;101637.91;5076674;28;45549;-75
2022/03/16 04:22:14;;;;;;;;;58.75;49.00;;;;;10.41;73.88;101588.63;5078347;28;45248;-75
2022/03/16 04:24:39;;;;;;;;;43.25;33.75;;;;;10.53;75.14;101612.00;5079786;27;45397;-75
2022/03/16 04:27:05;;;;;;;;;50.75;40.00;;;;;10.40;74.71;101591.22;5079568;28;45292;-75
2022/03/16 04:29:30;;;;;;;;;41.75;34.50;;;;;10.56;75.73;101625.34;5070618;28;45315;-76
2022/03/16 04:31:58;;;;;;;;;85.00;71.33;;;;;10.33;73.98;101591.81;5071690;28;45282;-76
2022/03/16 04:34:23;;;;;;;;;57.25;44.00;;;;;10.35;75.14;101593.69;5071082;28;45422;-75
2022/03/16 04:36:49;;;;;;;;;36.75;32.75;;;;;10.34;75.04;101594.53;5080207;27;45307;-76
2022/03/16 04:39:14;;;;;;;;;24.50;22.50;;;;;10.49;75.40;101613.59;5077537;28;46900;-76
2022/03/16 04:41:40;;;;;;;;;375.00;323.25;;;;;10.41;76.55;101596.56;5080294;28;45288;-75
2022/03/16 04:44:05;;;;;;;;;36.75;31.75;;;;;10.45;74.96;101610.81;5078236;27;45657;-76
2022/03/16 04:46:30;;;;;;;;;40.00;33.75;;;;;10.36;75.44;101598.13;5070647;28;46031;-75
2022/03/16 04:48:56;;;;;;;;;33.50;27.00;;;;;10.30;74.93;101593.50;5078903;28;45406;-75
2022/03/16 04:51:21;;;;;;;;;28.25;26.75;;;;;10.42;75.68;101615.94;5079187;28;45223;-74
2022/03/16 04:53:46;;;;;;;;;35.00;33.00;;;;;10.41;75.63;101617.69;5079062;27;45627;-76
2022/03/16 04:56:12;;;;;;;;;41.50;35.00;;;;;10.41;75.08;101617.69;5079747;27;45237;-76
2022/03/16 04:58:38;;;;;;;;;28.25;21.50;;;;;10.24;75.50;101592.34;5078455;27;45594;-76
2022/03/16 05:01:04;;;;;;;;;27.75;24.25;;;;;10.11;74.48;101577.78;5073425;28;45325;-75
2022/03/16 05:03:29;;;;;;;;;30.25;27.25;;;;;10.27;76.02;101603.06;5078795;28;45568;-76
2022/03/16 05:05:54;;;;;;;;;37.25;34.25;;;;;10.23;75.81;101596.72;5074200;27;45215;-76
2022/03/16 05:08:20;;;;;;;;;33.50;30.25;;;;;10.17;75.88;101591.22;5075147;28;45387;-76
2022/03/16 05:10:45;;;;;;;;;30.00;27.00;;;;;10.09;76.86;101555.69;5074870;28;45233;-76
2022/03/16 05:13:10;;;;;;;;;22.50;22.50;;;;;9.86;75.39;101529.28;5071672;28;45477;-76
2022/03/16 05:15:36;;;;;;;;;28.75;28.25;;;;;10.22;74.62;101578.16;5074274;28;45418;-76
2022/03/16 05:18:01;;;;;;;;;16.50;15.75;;;;;10.33;74.14;101603.28;5073593;28;46379;-77
2022/03/16 05:20:27;;;;;;;;;33.25;30.75;;;;;10.09;76.57;101571.53;5071570;28;45293;-74
2022/03/16 05:22:53;;;;;;;;;62.00;46.00;;;;;10.34;76.50;101610.41;5078771;27;45320;-75
2022/03/16 05:25:26;;;;;;;;;81.50;62.25;;;;;10.29;75.92;101612.84;5070344;27;45768;-75
2022/03/16 05:27:53;;;;;;;;;40.50;36.00;;;;;10.34;75.44;101614.78;5074202;27;45297;-76
2022/03/16 05:30:22;;;;;;;;;39.00;32.00;;;;;10.38;76.72;101627.25;5067844;28;45384;-76
2022/03/16 05:32:50;;;;;;;;;34.75;31.75;;;;;10.37;75.63;101628.13;5073785;28;45511;-76
2022/03/16 05:35:16;;;;;;;;;51.00;37.75;;;;;10.39;76.07;101631.69;5067845;28;45465;-76
2022/03/16 05:37:41;;;;;;;;;38.25;31.00;;;;;10.24;75.52;101601.16;5074485;28;45295;-76
2022/03/16 05:40:08;;;;;;;;;43.00;36.00;;;;;10.41;76.21;101635.31;5069736;28;45410;-77
2022/03/16 05:42:34;;;;;;;;;44.00;36.75;;;;;10.12;76.18;101592.78;5076710;28;45281;-76
2022/03/16 05:44:59;;;;;;;;;55.75;44.50;;;;;10.29;75.63;101623.41;5070455;27;45319;-77
2022/03/16 05:47:25;;;;;;;;;39.00;35.25;;;;;10.43;76.29;101642.47;5075119;28;45403;-76
2022/03/16 05:49:52;;;;;;;;;47.75;37.75;;;;;10.44;75.16;101641.59;5062600;27;45246;-76
2022/03/16 05:52:21;;;;;;;;;219.75;190.75;;;;;10.44;76.75;101640.72;5077984;28;45517;-77
2022/03/16 05:54:48;;;;;;;;;47.25;38.75;;;;;10.26;75.89;101603.88;5072259;27;45357;-77
2022/03/16 05:57:15;;;;;;;;;35.50;29.50;;;;;10.43;76.66;101631.00;5073392;28;47739;-75
2022/03/16 05:59:41;;;;;;;;;65.25;49.50;;;;;10.42;75.79;101635.38;5073062;27;45336;-76
2022/03/16 06:02:06;;;;;;;;;45.25;36.50;;;;;10.30;74.91;101619.03;5076339;28;45350;-75
2022/03/16 06:04:32;;;;;;;;;40.75;32.75;;;;;10.31;76.03;101618.22;5070283;28;47323;-76
2022/03/16 06:06:57;;;;;;;;;29.00;29.00;;;;;10.39;76.36;101627.34;5076925;28;47007;-76
2022/03/16 06:09:22;;;;;;;;;52.25;39.75;;;;;10.44;76.76;101641.59;5069563;28;45265;-76
2022/03/16 06:11:48;;;;;;;;;37.25;35.50;;;;;10.39;75.59;101632.63;5079211;28;45431;-77
2022/03/16 06:14:13;;;;;;;;;35.75;33.00;;;;;10.44;76.08;101644.25;5069150;28;45400;-76
2022/03/16 06:16:38;;;;;;;;;38.75;34.00;;;;;10.45;76.15;101647.81;5078539;27;45283;-75
2022/03/16 06:19:04;;;;;;;;;32.25;30.50;;;;;10.20;77.00;101596.63;5073791;28;45210;-76
2022/03/16 06:21:29;;;;;;;;;30.25;28.75;;;;;10.47;76.71;101638.19;5094427;27;45246;-76
2022/03/16 06:23:54;;;;;;;;;29.50;27.50;;;;;10.47;76.05;101623.25;5073295;27;45271;-76
2022/03/16 06:26:20;;;;;;;;;41.75;36.50;;;;;10.40;76.43;101612.38;5078320;27;45271;-76
2022/03/16 06:28:45;;;;;;;;;39.00;30.75;;;;;10.43;76.11;101628.34;5074914;28;45666;-76
2022/03/16 06:31:10;;;;;;;;;37.00;30.75;;;;;10.48;76.63;101648.81;5065676;27;45609;-76
2022/03/16 06:33:36;;;;;;;;;32.75;29.75;;;;;10.44;76.17;101643.34;5075542;28;45487;-75
2022/03/16 06:36:01;;;;;;;;;33.25;28.50;;;;;10.48;76.51;101654.09;5066989;28;45709;-76
2022/03/16 06:38:27;;;;;;;;;28.50;25.75;;;;;10.32;75.30;101621.75;5081237;27;45467;-78
2022/03/16 06:40:52;;;;;;;;;35.00;31.25;;;;;10.42;75.78;101645.94;5068614;27;45398;-76
2022/03/16 06:43:17;;;;;;;;;34.25;31.00;;;;;10.52;76.45;101666.59;5077882;28;45425;-75
2022/03/16 06:45:43;;;;;;;;;36.00;31.50;;;;;10.37;76.34;101629.00;5063849;27;45260;-75
2022/03/16 06:48:08;;;;;;;;;34.25;30.50;;;;;10.60;76.55;101663.34;5065269;28;45323;-73
2022/03/16 06:50:34;;;;;;;;;30.75;26.75;;;;;10.37;75.63;101628.13;5076472;27;45843;-73
2022/03/16 06:52:59;;;;;;;;;38.75;34.75;;;;;10.48;75.49;101648.81;5070047;28;45322;-77
2022/03/16 06:55:26;;;;;;;;;24.75;22.75;;;;;10.43;75.33;101645.09;5073339;28;46320;-76
2022/03/16 06:57:52;;;;;;;;;32.75;27.75;;;;;10.61;75.30;101671.31;5080823;28;45239;-76
2022/03/16 07:00:17;;;;;;;;;30.00;25.50;;;;;10.50;76.26;101651.50;5101332;27;45294;-76
2022/03/16 07:03:15;;;;;;;;;34.50;29.25;;;;;10.65;75.78;101682.94;5072093;28;45467;-76
2022/03/16 07:05:42;;;;;;;;;32.50;29.00;;;;;10.61;75.59;101668.69;5068815;28;45538;-76
2022/03/16 07:08:12;;;;;;;;;36.75;33.00;;;;;10.68;75.35;101675.13;5078621;28;45540;-76
2022/03/16 07:10:40;;;;;;;;;39.75;32.25;;;;;10.24;75.88;101595.00;5074846;28;45348;-76
2022/03/16 07:13:06;;;;;;;;;37.50;30.00;;;;;10.66;75.55;101661.81;5078904;27;45450;-76
2022/03/16 07:15:32;;;;;;;;;35.50;31.50;;;;;10.77;75.81;101671.91;5072329;28;48095;-75
2022/03/16 07:17:58;;;;;;;;;32.50;30.00;;;;;10.60;75.99;101634.28;5079751;28;45337;-75
2022/03/16 07:20:24;;;;;;;;;152.25;131.00;;;;;10.79;75.15;101665.84;5072791;28;45366;-75
2022/03/16 07:23:07;;;;;;;;;36.50;31.75;;;;;10.81;75.65;101665.88;5076742;27;45269;-76
2022/03/16 07:25:33;;;;;;;;;33.75;31.25;;;;;10.71;75.30;101639.09;5060890;28;46153;-75
2022/03/16 07:27:58;;;;;;;;;38.50;34.75;;;;;10.80;75.69;101650.88;5074811;28;45419;-74
2022/03/16 07:30:24;;;;;;;;;43.50;38.75;;;;;10.88;75.37;101657.34;5069106;28;45442;-76
2022/03/16 07:32:49;;;;;;;;;31.00;29.50;;;;;10.82;74.32;101635.97;5076297;28;45402;-75
2022/03/16 07:35:15;;;;;;;;;34.50;31.50;;;;;10.77;74.76;101633.16;5070147;27;45407;-75
2022/03/16 07:37:42;;;;;;;;;38.00;32.50;;;;;10.87;75.23;101655.56;5077692;28;45664;-75
2022/03/16 07:40:08;;;;;;;;;28.50;28.50;;;;;11.00;75.87;101672.75;5080674;27;45388;-75
2022/03/16 07:42:34;;;;;;;;;37.50;32.50;;;;;10.83;74.56;101648.34;5076111;28;47429;-75
2022/03/16 07:44:59;;;;;;;;;45.25;37.25;;;;;10.98;74.67;101667.44;5070415;28;47271;-75
2022/03/16 07:47:25;;;;;;;;;41.50;35.25;;;;;11.06;75.15;101668.63;5094068;27;45938;-75
2022/03/16 07:49:56;;;;;;;;;34.50;30.50;;;;;11.08;74.25;101671.31;5079588;27;45355;-75
2022/03/16 07:52:24;;;;;;;;;35.50;32.00;;;;;11.06;74.88;101662.41;5079598;27;45307;-75
2022/03/16 07:54:50;;;;;;;;;31.50;31.25;;;;;11.13;74.53;101667.06;5073368;28;45523;-75
2022/03/16 07:57:18;;;;;;;;;62.00;51.00;;;;;10.88;74.62;101620.31;5077793;28;46067;-76
2022/03/16 07:59:45;;;;;;;;;48.50;37.75;;;;;10.97;74.88;101624.19;5074601;27;45492;-75
2022/03/16 08:02:16;;;;;;;;;38.00;34.00;;;;;11.29;73.65;101681.78;5078841;28;45318;-75
2022/03/16 08:04:41;;;;;;;;;30.75;24.75;;;;;11.23;74.43;101647.13;5070869;27;45480;-75
2022/03/16 08:07:09;;;;;;;;;38.50;35.00;;;;;11.35;73.99;101669.63;5078119;28;45303;-75
2022/03/16 08:09:35;;;;;;;;;70.75;55.00;;;;;11.23;73.89;101637.47;5081588;27;45309;-76
2022/03/16 08:12:00;;;;;;;;;37.00;34.25;;;;;11.20;74.41;101632.97;5079886;28;45501;-75
2022/03/16 08:14:25;;;;;;;;;49.25;39.00;;;;;11.11;74.25;101616.72;5067775;27;45494;-76
2022/03/16 08:16:51;;;;;;;;;34.75;26.50;;;;;11.43;73.52;101657.56;5077107;27;45332;-76
2022/03/16 08:19:16;;;;;;;;;41.75;32.75;;;;;11.41;73.62;101643.38;5070123;28;45193;-75
2022/03/16 08:21:42;;;;;;;;;52.00;42.50;;;;;11.47;73.29;101653.28;5079867;27;45302;-75
2022/03/16 08:24:08;;;;;;;;;54.50;42.75;;;;;11.35;74.04;101632.59;5073670;27;46399;-76
2022/03/16 08:26:34;;;;;;;;;36.00;32.50;;;;;11.50;73.37;101649.84;5065549;28;45480;-74
2022/03/16 08:28:59;;;;;;;;;42.00;36.50;;;;;11.46;73.54;101640.91;5074549;27;45227;-75
2022/03/16 08:31:25;;;;;;;;;43.50;34.75;;;;;11.33;73.45;101628.06;5067502;27;45553;-75
2022/03/16 08:33:50;;;;;;;;;37.75;35.50;;;;;11.32;73.86;101621.00;5077180;28;45660;-76
2022/03/16 08:36:16;;;;;;;;;75.25;57.25;;;;;11.50;73.43;101648.09;5068993;27;45241;-74
2022/03/16 08:38:41;;;;;;;;;33.25;32.25;;;;;11.55;73.59;101661.50;5078118;28;45471;-74
2022/03/16 08:41:08;;;;;;;;;34.00;29.25;;;;;11.55;72.82;101670.31;5070009;27;45293;-76
2022/03/16 08:43:34;;;;;;;;;38.75;33.75;;;;;11.57;72.77;101663.34;5079157;28;46474;-75
2022/03/16 08:46:00;;;;;;;;;41.50;33.25;;;;;11.54;73.71;101654.38;5070937;27;45378;-75
2022/03/16 08:48:26;;;;;;;;;36.25;34.50;;;;;11.62;72.96;101666.13;5078725;28;45880;-75
2022/03/16 08:50:52;;;;;;;;;35.00;33.75;;;;;11.60;72.68;101671.38;5079915;28;45515;-75
2022/03/16 08:53:18;;;;;;;;;38.00;32.50;;;;;11.45;72.16;101638.19;5078733;28;45440;-76
2022/03/16 08:55:43;;;;;;;;;38.50;32.75;;;;;11.39;72.24;101638.88;5072699;27;45409;-76
2022/03/16 08:58:08;;;;;;;;;42.50;32.50;;;;;11.68;72.90;101687.53;5078931;27;45349;-76
2022/03/16 09:00:34;;;;;;;;;37.00;31.00;;;;;11.68;72.80;101694.56;5074012;27;45178;-75
2022/03/16 09:02:59;;;;;;;;;35.50;27.00;;;;;11.50;72.54;101669.25;5077841;28;46567;-76
2022/03/16 09:05:26;;;;;;;;;40.25;31.25;;;;;11.70;72.44;101699.06;5070727;28;45161;-76
2022/03/16 09:07:51;;;;;;;;;31.00;29.50;;;;;11.67;72.47;101691.03;5074611;28;45328;-75
2022/03/16 09:10:16;;;;;;;;;30.75;26.25;;;;;11.76;72.57;101701.97;5074586;28;45908;-76
2022/03/16 09:12:42;;;;;;;;;40.50;33.75;;;;;11.63;72.51;101670.59;5077662;27;45383;-76
2022/03/16 09:15:08;;;;;;;;;32.00;32.00;;;;;11.62;72.46;101652.88;5078372;28;45331;-76
2022/03/16 09:17:34;;;;;;;;;38.50;30.00;;;;;11.90;72.52;101698.88;5076937;28;45570;-75
2022/03/16 09:20:03;;;;;;;;;37.75;33.00;;;;;11.96;72.36;101688.47;5073815;27;45504;-76
2022/03/16 09:22:28;;;;;;;;;36.25;33.00;;;;;12.00;71.92;101687.75;5064087;28;45469;-75
2022/03/16 09:24:56;;;;;;;;;40.50;30.75;;;;;11.89;71.49;101663.53;5065966;27;45532;-74
2022/03/16 09:27:23;;;;;;;;;36.50;32.00;;;;;12.02;70.88;101688.69;5063132;28;45449;-75
2022/03/16 09:29:48;;;;;;;;;32.25;29.75;;;;;12.00;70.51;101693.94;5071379;28;45305;-74
2022/03/16 09:32:14;;;;;;;;;30.50;28.00;;;;;12.04;71.42;101701.16;5072468;28;45331;-74
2022/03/16 09:34:40;;;;;;;;;37.50;32.75;;;;;12.08;71.22;101697.75;5072954;27;45436;-74
2022/03/16 09:37:06;;;;;;;;;36.25;31.75;;;;;11.88;70.75;101661.75;5059543;28;45535;-75
2022/03/16 09:39:32;;;;;;;;;36.50;32.00;;;;;12.09;71.24;101686.28;5075855;27;45448;-74
2022/03/16 09:41:58;;;;;;;;;40.75;32.50;;;;;12.08;71.19;101683.59;5077768;27;45437;-75
2022/03/16 09:44:24;;;;;;;;;36.75;34.50;;;;;12.11;71.07;101675.75;5077500;27;45342;-75
2022/03/16 09:46:52;;;;;;;;;30.75;29.25;;;;;12.01;71.19;101639.19;5077228;28;45490;-74
2022/03/16 09:49:17;;;;;;;;;43.50;33.00;;;;;12.31;70.86;101679.91;5076881;28;45353;-75
2022/03/16 09:51:43;;;;;;;;;39.25;31.50;;;;;12.44;70.86;101690.91;5078189;28;45452;-75
2022/03/16 09:54:09;;;;;;;;;43.75;36.50;;;;;12.52;70.31;101689.41;5073691;28;45517;-74
2022/03/16 09:56:35;;;;;;;;;40.25;35.50;;;;;12.36;70.27;101640.31;5069733;27;45332;-74
2022/03/16 09:59:01;;;;;;;;;45.00;38.00;;;;;12.50;70.03;101653.97;5074516;28;46326;-76
2022/03/16 10:01:27;;;;;;;;;48.75;34.75;;;;;12.71;69.37;101665.22;5077916;28;45379;-74
2022/03/16 10:03:54;;;;;;;;;36.00;30.50;;;;;12.63;70.61;101647.28;5067043;28;45186;-76
2022/03/16 10:06:24;;;;;;;;;34.00;31.75;;;;;12.81;69.81;101676.09;5077284;28;45194;-75
2022/03/16 10:14:17;;;;;;;;;35.00;31.25;;;;;12.71;69.28;101653.69;5076933;28;45264;-76
2022/03/16 10:19:50;;;;;;;;;37.00;34.25;;;;;12.92;68.31;101669.34;5077635;28;45260;-76
2022/03/16 10:22:30;;;;;;;;;38.75;33.00;;;;;12.98;69.18;101665.13;5077486;28;45598;-76
2022/03/16 10:25:05;;;;;;;;;44.50;34.00;;;;;13.01;69.02;101661.66;5076250;28;45263;-76
2022/03/16 10:27:36;;;;;;;;;40.25;33.25;;;;;13.17;68.80;101660.34;5080752;27;45417;-76
2022/03/16 10:30:06;;;;;;;;;38.75;34.00;;;;;13.21;68.51;101646.28;5071661;28;46112;-76
2022/03/16 10:32:32;;;;;;;;;38.25;33.75;;;;;12.86;68.63;101574.56;5075420;28;46627;-74
2022/03/16 10:35:09;;;;;;;;;30.50;30.25;;;;;13.32;67.27;101660.75;5077591;27;45464;-74
2022/03/16 10:37:37;;;;;;;;;37.25;31.75;;;;;13.44;68.08;101673.47;5079097;28;45401;-74
2022/03/16 10:40:15;;;;;;;;;40.25;32.50;;;;;13.46;67.01;101662.91;5080112;28;46988;-77
2022/03/16 10:48:21;;;;;;;;;36.25;33.00;;;;;13.54;67.67;101625.03;5080011;28;45490;-76
2022/03/16 10:50:50;;;;;;;;;36.00;30.75;;;;;13.79;66.29;101658.44;5080099;28;45752;-76
2022/03/16 10:53:17;;;;;;;;;38.75;32.50;;;;;13.71;66.77;101622.81;5080445;27;45366;-76
2022/03/16 10:55:45;;;;;;;;;35.50;31.50;;;;;13.85;66.18;101625.81;5077305;28;45402;-76
2022/03/16 10:58:12;;;;;;;;;42.50;33.25;;;;;13.98;66.29;101635.88;5073261;28;45368;-76
2022/03/16 11:00:39;;;;;;;;;42.00;35.50;;;;;14.08;65.80;101634.31;5080110;28;45700;-76
2022/03/16 11:03:06;;;;;;;;;37.75;34.25;;;;;13.90;65.77;101597.59;5073223;28;48465;-76
2022/03/16 11:05:36;;;;;;;;;44.75;36.75;;;;;14.18;66.57;101628.38;5072191;28;45212;-75
2022/03/16 11:08:09;;;;;;;;;37.75;32.50;;;;;14.28;66.03;101627.72;5075207;28;45494;-76
2022/03/16 11:10:36;;;;;;;;;42.25;35.25;;;;;14.30;65.42;101617.09;5074055;28;45222;-77
2022/03/16 11:15:50;;;;;;;;;42.50;33.50;;;;;14.45;64.98;101614.78;5075559;28;45363;-76
2022/03/16 11:18:17;;;;;;;;;41.50;34.00;;;;;14.56;65.20;101609.72;5077999;28;45462;-76
2022/03/16 11:20:44;;;;;;;;;37.75;33.00;;;;;14.67;63.90;101602.84;5075049;28;45300;-76
2022/03/16 11:26:17;;;;;;;;;45.00;34.50;;;;;14.84;65.29;101600.50;5068358;28;45487;-75